SAEZ/EZE METAR and TAF weather

Enter ICAO airport designator
Station Type Date Time Source
SAEZ METAR 2018/12/17 03:00 UTC NOAA

SAEZ 170300Z 01005KT 350V060 9999 FEW050CB SCT100 26/21 Q1007 NOSIG RMK LGHT OBS TO S


Station Type Date Time Source
SAEZ Decoded METAR 2018/12/17 03:00 UTC NOAA

Ezeiza Aerodrome, Argentina (SAEZ) 34-49S 058-32W 20M
Dec 16, 2018 - 10:00 PM EST / 2018.12.17 0300 UTC
Wind: from the N (010 degrees) at 6 MPH (5 KT) (direction variable):0
Visibility: greater than 7 mile(s):0
Sky conditions: partly cloudy
Weather: Cumulonimbus clouds observed
Temperature: 78 F (26 C)
Dew Point: 69 F (21 C)
Relative Humidity: 73%
Pressure (altimeter): 29.74 in. Hg (1007 hPa)
ob: SAEZ 170300Z 01005KT 350V060 9999 FEW050CB SCT100 26/21 Q1007 NOSIG RMK LGHT OBS TO S
cycle: 3

Station Type Date Time Source
SAEZ TAF 2018/12/17 03:51 UTC NOAA

TAF
AMD SAEZ 170245Z 1703/1724 01005KT 9999 SCT020 FEW050CB SCT100 TX29/1719Z TN21/1709Z
TEMPO 1704/1710 5000 TSRA BKN030 FEW045CB OVC050
BECMG 1710/1712 15015G25KT 9999 SCT030


Example: see airport list